createdAt,value
2023-03-02T00:00:47.564Z,0.92
2023-03-02T00:02:22.615Z,0.88
2023-03-02T00:03:58.992Z,0.89
2023-03-02T00:05:32.244Z,0.89
2023-03-02T00:07:08.034Z,0.92
2023-03-02T00:08:40.264Z,0.83
2023-03-02T00:10:11.853Z,0.92
2023-03-02T00:11:43.535Z,1.14
2023-03-02T00:13:15.458Z,1.16
2023-03-02T00:14:47.047Z,0.89
2023-03-02T00:16:18.867Z,0.78
2023-03-02T00:17:50.723Z,0.66
2023-03-02T00:19:22.314Z,0.65
2023-03-02T00:20:53.956Z,0.60
2023-03-02T00:22:25.582Z,0.55
2023-03-02T00:23:57.485Z,0.43
2023-03-02T00:25:28.998Z,0.38
2023-03-02T00:27:00.636Z,0.40
2023-03-02T00:28:33.158Z,0.44
2023-03-02T00:30:06.294Z,0.41
2023-03-02T00:31:38.396Z,0.33
2023-03-02T00:33:10.114Z,0.37
2023-03-02T00:34:41.714Z,0.31
2023-03-02T00:36:17.808Z,0.33
2023-03-02T00:37:49.543Z,0.30
2023-03-02T00:39:21.114Z,0.38
2023-03-02T00:40:52.694Z,0.27
2023-03-02T00:42:24.381Z,0.24
2023-03-02T00:43:56.186Z,0.18
2023-03-02T00:45:27.882Z,0.08
2023-03-02T00:46:59.631Z,0.03
2023-03-02T00:48:31.244Z,0.04
2023-03-02T00:50:04.570Z,0.12
2023-03-02T00:51:36.136Z,0.09
2023-03-02T00:53:09.306Z,0.04
2023-03-02T00:54:40.909Z,0.02
2023-03-02T00:56:12.725Z,-0.02
2023-03-02T00:57:55.155Z,0.04
2023-03-02T00:59:31.693Z,0.04
2023-03-02T01:01:13.518Z,0.04
2023-03-02T01:02:50.535Z,0.08
2023-03-02T01:04:22.168Z,0.03
2023-03-02T01:05:56.289Z,0.05
2023-03-02T01:07:28.570Z,0.03
2023-03-02T01:09:00.359Z,0.08
2023-03-02T01:10:33.707Z,0.04
2023-03-02T01:12:09.259Z,0.01
2023-03-02T01:13:40.837Z,-0.03
2023-03-02T01:15:12.848Z,-0.04
2023-03-02T01:16:44.576Z,0.07
2023-03-02T01:18:16.345Z,0.00
2023-03-02T01:19:48.438Z,-0.01
2023-03-02T01:21:20.025Z,-0.09
2023-03-02T01:22:51.739Z,-0.03
2023-03-02T01:24:23.709Z,-0.05
2023-03-02T01:25:55.321Z,0.01
2023-03-02T01:27:26.939Z,-0.03
2023-03-02T01:28:58.616Z,0.00
2023-03-02T01:30:30.214Z,0.00
2023-03-02T01:32:02.189Z,0.03
2023-03-02T01:33:34.128Z,0.03
2023-03-02T01:35:06.158Z,0.09
2023-03-02T01:36:37.803Z,0.20
2023-03-02T01:38:09.592Z,0.23
2023-03-02T01:39:41.510Z,0.24
2023-03-02T01:41:14.815Z,0.25
2023-03-02T01:42:52.749Z,0.19
2023-03-02T01:44:42.388Z,0.25
2023-03-02T01:46:18.134Z,0.28
2023-03-02T01:47:53.827Z,0.28
2023-03-02T01:49:25.647Z,0.29
2023-03-02T01:51:04.350Z,0.30
2023-03-02T01:52:38.441Z,0.25
2023-03-02T01:54:17.349Z,0.23
2023-03-02T01:55:49.172Z,0.29
2023-03-02T01:57:25.794Z,0.31
2023-03-02T01:59:02.465Z,0.30
2023-03-02T02:00:38.304Z,0.24
2023-03-02T02:02:12.585Z,0.29
2023-03-02T02:03:46.917Z,0.34
2023-03-02T02:05:22.910Z,0.33
2023-03-02T02:07:00.664Z,0.29
2023-03-02T02:08:32.854Z,0.28
2023-03-02T02:10:05.282Z,0.31
2023-03-02T02:11:36.960Z,0.32
2023-03-02T02:13:11.509Z,0.32
2023-03-02T02:14:43.912Z,0.34
2023-03-02T02:16:16.043Z,0.37
2023-03-02T02:17:48.452Z,0.35
2023-03-02T02:19:58.341Z,0.39
2023-03-02T02:21:30.625Z,0.54
2023-03-02T02:23:17.529Z,0.65
2023-03-02T02:24:58.718Z,0.63
2023-03-02T02:26:38.629Z,0.69
2023-03-02T02:28:23.287Z,0.78
2023-03-02T02:29:58.210Z,0.78
2023-03-02T02:31:44.889Z,0.80
2023-03-02T02:33:23.656Z,0.80
2023-03-02T02:35:03.859Z,0.92
2023-03-02T02:36:40.593Z,0.93
2023-03-02T02:38:19.690Z,1.13
2023-03-02T02:39:51.873Z,0.99
2023-03-02T02:41:30.812Z,0.97
2023-03-02T02:43:02.738Z,0.94
2023-03-02T02:44:34.264Z,0.96
2023-03-02T02:46:05.930Z,0.99
2023-03-02T02:47:38.074Z,1.04
2023-03-02T02:49:25.376Z,1.10
2023-03-02T02:51:02.941Z,1.10
2023-03-02T02:52:34.988Z,1.10
2023-03-02T02:54:06.578Z,1.10
2023-03-02T02:55:42.696Z,1.17
2023-03-02T02:57:19.103Z,1.15
2023-03-02T02:58:53.887Z,1.16
2023-03-02T03:00:26.184Z,1.17
2023-03-02T03:01:58.572Z,1.12
2023-03-02T03:03:33.729Z,1.17
2023-03-02T03:05:14.624Z,1.23
2023-03-02T03:06:59.869Z,1.30
2023-03-02T03:08:43.575Z,1.22
2023-03-02T03:10:40.052Z,1.21
2023-03-02T03:12:22.129Z,1.26
2023-03-02T03:14:15.576Z,1.23
2023-03-02T03:15:49.175Z,1.22
2023-03-02T03:17:21.045Z,1.30
2023-03-02T03:19:05.589Z,1.23
2023-03-02T03:20:37.325Z,1.26
2023-03-02T03:22:11.908Z,1.25
2023-03-02T03:23:45.040Z,1.32
2023-03-02T03:25:16.845Z,1.28
2023-03-02T03:26:54.204Z,1.29
2023-03-02T03:28:26.138Z,1.26
2023-03-02T03:29:57.877Z,1.25
2023-03-02T03:31:29.496Z,1.24
2023-03-02T03:33:01.954Z,1.23
2023-03-02T03:34:40.637Z,1.22
2023-03-02T03:36:18.071Z,1.21
2023-03-02T03:37:49.837Z,1.21
2023-03-02T03:39:22.884Z,1.22
2023-03-02T03:40:55.393Z,1.22
2023-03-02T03:42:27.369Z,1.24
2023-03-02T03:44:00.702Z,1.25
2023-03-02T03:45:34.049Z,1.27
2023-03-02T03:47:05.927Z,1.33
2023-03-02T03:48:38.437Z,1.29
2023-03-02T03:50:10.881Z,1.31
2023-03-02T03:51:43.012Z,1.23
2023-03-02T03:53:14.684Z,1.26
2023-03-02T03:54:46.558Z,1.21
2023-03-02T03:56:18.143Z,1.22
2023-03-02T03:57:49.941Z,1.21
2023-03-02T03:59:24.338Z,1.23
2023-03-02T04:01:00.782Z,1.23
2023-03-02T04:02:32.411Z,1.18
2023-03-02T04:04:05.674Z,1.21
2023-03-02T04:05:37.273Z,1.21
2023-03-02T04:07:09.594Z,1.21
2023-03-02T04:08:41.961Z,1.13
2023-03-02T04:10:13.730Z,1.17
2023-03-02T04:11:49.328Z,1.14
2023-03-02T04:13:21.368Z,1.17
2023-03-02T04:14:53.254Z,1.13
2023-03-02T04:16:24.952Z,1.10
2023-03-02T04:17:56.716Z,1.09
2023-03-02T04:19:28.960Z,1.09
2023-03-02T04:21:02.546Z,1.12
2023-03-02T04:22:34.198Z,1.17
2023-03-02T04:24:07.172Z,1.21
2023-03-02T04:25:38.811Z,1.20
2023-03-02T04:27:18.880Z,1.24
2023-03-02T04:28:50.912Z,1.23
2023-03-02T04:30:25.959Z,1.17
2023-03-02T04:31:58.326Z,1.27
2023-03-02T04:33:31.361Z,1.26
2023-03-02T04:35:03.471Z,1.25
2023-03-02T04:36:38.650Z,1.32
2023-03-02T04:38:13.782Z,1.22
2023-03-02T04:39:50.107Z,1.18
2023-03-02T04:41:21.909Z,1.14
2023-03-02T04:42:53.432Z,1.13
2023-03-02T04:44:24.951Z,1.13
2023-03-02T04:45:56.504Z,1.19
2023-03-02T04:47:28.122Z,1.23
2023-03-02T04:49:00.216Z,1.30
2023-03-02T04:50:31.872Z,1.24
2023-03-02T04:52:04.409Z,1.19
2023-03-02T04:53:36.052Z,1.15
2023-03-02T04:55:08.058Z,1.18
2023-03-02T04:56:40.143Z,1.19
2023-03-02T04:58:11.913Z,1.22
2023-03-02T04:59:43.468Z,1.21
2023-03-02T05:01:17.542Z,1.13
2023-03-02T05:02:49.135Z,1.09
2023-03-02T05:04:21.344Z,1.15
2023-03-02T05:05:52.966Z,1.12
2023-03-02T05:07:24.583Z,1.10
2023-03-02T05:08:59.802Z,1.08
2023-03-02T05:10:31.581Z,1.05
2023-03-02T05:12:03.338Z,1.05
2023-03-02T05:13:35.369Z,1.05
2023-03-02T05:15:07.408Z,1.03
2023-03-02T05:16:41.227Z,1.07
2023-03-02T05:18:13.387Z,1.08
2023-03-02T05:19:45.049Z,1.08
2023-03-02T05:21:17.626Z,1.05
2023-03-02T05:22:49.327Z,1.09
2023-03-02T05:24:20.917Z,0.98
2023-03-02T05:25:54.733Z,0.97
2023-03-02T05:27:26.300Z,1.17
2023-03-02T05:28:58.060Z,1.08
2023-03-02T05:30:30.997Z,1.06
2023-03-02T05:32:02.705Z,1.04
2023-03-02T05:33:34.793Z,1.04
2023-03-02T05:35:06.995Z,1.03
2023-03-02T05:36:39.307Z,0.99
2023-03-02T05:38:11.721Z,0.98
2023-03-02T05:39:43.301Z,1.00
2023-03-02T05:41:15.247Z,1.08
2023-03-02T05:42:46.880Z,1.09
2023-03-02T05:44:18.532Z,1.08
2023-03-02T05:45:50.132Z,1.07
2023-03-02T05:47:21.731Z,1.05
2023-03-02T05:48:53.731Z,1.03
2023-03-02T05:50:25.347Z,1.03
2023-03-02T05:51:57.128Z,1.05
2023-03-02T05:53:29.861Z,1.12
2023-03-02T05:55:01.888Z,1.15
2023-03-02T05:56:33.821Z,1.22
2023-03-02T05:58:12.897Z,1.23
2023-03-02T05:59:46.426Z,1.13
2023-03-02T06:01:18.048Z,1.13
2023-03-02T06:02:49.770Z,1.13
2023-03-02T06:04:21.454Z,1.16
2023-03-02T06:05:53.183Z,1.15
2023-03-02T06:07:24.883Z,1.22
2023-03-02T06:08:56.501Z,1.24
2023-03-02T06:10:28.436Z,1.27
2023-03-02T06:12:00.099Z,1.24
2023-03-02T06:13:31.807Z,1.22
2023-03-02T06:15:04.874Z,1.22
2023-03-02T06:16:37.301Z,1.20
2023-03-02T06:18:08.943Z,1.21
2023-03-02T06:19:40.514Z,1.19
2023-03-02T06:21:12.090Z,1.21
2023-03-02T06:22:46.010Z,1.20
2023-03-02T06:24:17.694Z,1.24
2023-03-02T06:25:49.411Z,1.25
2023-03-02T06:27:21.557Z,1.25
2023-03-02T06:28:54.012Z,1.28
2023-03-02T06:30:27.571Z,1.29
2023-03-02T06:31:59.274Z,1.30
2023-03-02T06:33:31.368Z,1.30
2023-03-02T06:35:05.774Z,1.33
2023-03-02T06:36:40.120Z,1.33
2023-03-02T06:38:11.994Z,1.37
2023-03-02T06:39:43.555Z,1.37
2023-03-02T06:41:15.492Z,1.38
2023-03-02T06:42:47.294Z,1.39
2023-03-02T06:44:19.153Z,1.40
2023-03-02T06:45:51.067Z,1.38
2023-03-02T06:47:23.522Z,1.38
2023-03-02T06:48:55.192Z,1.45
2023-03-02T06:50:28.256Z,1.46
2023-03-02T06:51:59.763Z,1.49
2023-03-02T06:53:31.313Z,1.42
2023-03-02T06:55:03.807Z,1.37
2023-03-02T06:56:35.683Z,1.38
2023-03-02T06:58:07.310Z,1.33
2023-03-02T06:59:38.964Z,1.35
2023-03-02T07:01:10.627Z,1.46
2023-03-02T07:02:42.619Z,1.48
2023-03-02T07:04:14.205Z,1.55
2023-03-02T07:05:46.459Z,1.56
2023-03-02T07:07:18.174Z,1.64
2023-03-02T07:08:49.797Z,1.65
2023-03-02T07:10:21.470Z,1.66
2023-03-02T07:11:53.162Z,1.66
2023-03-02T07:13:25.213Z,1.63
2023-03-02T07:14:57.067Z,1.67
2023-03-02T07:16:28.940Z,1.68
2023-03-02T07:18:00.603Z,1.71
2023-03-02T07:19:32.245Z,1.85
2023-03-02T07:21:04.068Z,1.88
2023-03-02T07:22:36.121Z,1.90
2023-03-02T07:24:08.258Z,1.95
2023-03-02T07:25:39.928Z,1.96
2023-03-02T07:27:11.593Z,1.90
2023-03-02T07:28:44.450Z,1.77
2023-03-02T07:30:18.973Z,1.79
2023-03-02T07:31:56.996Z,1.81
2023-03-02T07:33:29.157Z,1.83
2023-03-02T07:35:00.938Z,1.87
2023-03-02T07:36:32.517Z,1.95
2023-03-02T07:38:04.115Z,1.92
2023-03-02T07:39:35.658Z,1.90
2023-03-02T07:41:10.393Z,1.95
2023-03-02T07:42:42.144Z,2.07
2023-03-02T07:44:13.985Z,2.03
2023-03-02T07:45:45.955Z,1.98
2023-03-02T07:47:17.504Z,2.09
2023-03-02T07:48:49.183Z,2.05
2023-03-02T07:50:20.905Z,2.15
2023-03-02T07:51:52.666Z,2.19
2023-03-02T07:53:24.547Z,2.21
2023-03-02T07:54:56.575Z,2.26
2023-03-02T07:56:28.222Z,2.29
2023-03-02T07:57:59.881Z,2.35
2023-03-02T07:59:31.753Z,2.44
2023-03-02T08:01:04.484Z,2.48
2023-03-02T08:02:36.281Z,2.51
2023-03-02T08:04:08.081Z,2.42
2023-03-02T08:05:39.714Z,2.47
2023-03-02T08:07:11.360Z,2.52
2023-03-02T08:08:43.000Z,2.59
2023-03-02T08:10:14.870Z,2.73
2023-03-02T08:11:47.901Z,2.70
2023-03-02T08:13:19.761Z,2.70
2023-03-02T08:14:51.475Z,2.85
2023-03-02T08:16:25.811Z,2.76
2023-03-02T08:17:57.836Z,2.69
2023-03-02T08:19:29.525Z,2.66
2023-03-02T08:21:01.202Z,2.73
2023-03-02T08:22:32.950Z,2.83
2023-03-02T08:24:05.537Z,2.78
2023-03-02T08:25:38.611Z,2.78
2023-03-02T08:27:15.133Z,2.83
2023-03-02T08:28:47.529Z,2.92
2023-03-02T08:30:19.449Z,2.89
2023-03-02T08:31:51.253Z,3.02
2023-03-02T08:33:22.896Z,3.09
2023-03-02T08:34:54.586Z,2.89
2023-03-02T08:36:26.517Z,3.13
2023-03-02T08:37:59.756Z,2.91
2023-03-02T08:39:32.279Z,2.82
2023-03-02T08:41:11.318Z,2.81
2023-03-02T08:42:42.958Z,2.78
2023-03-02T08:44:14.658Z,2.91
2023-03-02T08:45:50.567Z,3.10
2023-03-02T08:47:22.218Z,3.24
2023-03-02T08:48:53.915Z,3.22
2023-03-02T08:50:25.569Z,3.35
2023-03-02T08:51:59.194Z,3.16
2023-03-02T08:53:33.177Z,3.19
2023-03-02T08:55:05.570Z,3.41
2023-03-02T08:56:39.475Z,3.37
2023-03-02T08:58:11.092Z,3.23
2023-03-02T08:59:42.944Z,3.39
2023-03-02T09:01:26.329Z,3.65
2023-03-02T09:02:58.000Z,3.82
2023-03-02T09:04:29.671Z,3.89
2023-03-02T09:06:01.487Z,3.83
2023-03-02T09:07:33.270Z,3.59
2023-03-02T09:09:06.039Z,3.70
2023-03-02T09:10:37.959Z,3.71
2023-03-02T09:12:09.679Z,3.91
2023-03-02T09:13:42.161Z,3.86
2023-03-02T09:15:13.884Z,3.78
2023-03-02T09:16:46.286Z,3.83
2023-03-02T09:18:18.037Z,4.06
2023-03-02T09:19:49.683Z,3.98
2023-03-02T09:21:22.343Z,4.14
2023-03-02T09:22:54.004Z,4.30
2023-03-02T09:24:25.755Z,4.23
2023-03-02T09:25:57.450Z,4.46
2023-03-02T09:27:29.313Z,4.63
2023-03-02T09:29:01.109Z,4.54
2023-03-02T09:30:32.981Z,4.54
2023-03-02T09:32:04.986Z,4.68
2023-03-02T09:33:36.738Z,4.77
2023-03-02T09:35:08.991Z,4.79
2023-03-02T09:36:40.662Z,4.85
2023-03-02T09:38:16.103Z,4.56
2023-03-02T09:39:47.909Z,4.23
2023-03-02T09:41:29.974Z,4.35
2023-03-02T09:43:13.595Z,4.39
2023-03-02T09:45:13.525Z,4.56
2023-03-02T09:46:54.170Z,4.78
2023-03-02T09:49:04.230Z,4.78
2023-03-02T09:50:40.145Z,4.88
2023-03-02T09:52:33.821Z,4.52
2023-03-02T09:54:10.628Z,4.83
2023-03-02T09:55:42.283Z,4.92
2023-03-02T09:57:21.970Z,4.95
2023-03-02T09:59:03.252Z,5.07
2023-03-02T10:00:38.429Z,5.15
2023-03-02T10:02:28.249Z,5.20
2023-03-02T10:04:27.702Z,5.52
2023-03-02T10:05:59.427Z,5.27
2023-03-02T10:07:31.016Z,5.25
2023-03-02T10:09:02.797Z,5.46
2023-03-02T10:11:08.373Z,5.33
2023-03-02T10:12:52.163Z,5.30
2023-03-02T10:14:30.735Z,5.02
2023-03-02T10:16:13.780Z,4.99
2023-03-02T10:18:21.155Z,4.94
2023-03-02T10:20:27.597Z,4.91
2023-03-02T10:22:14.314Z,5.23
2023-03-02T10:23:57.264Z,4.93
2023-03-02T10:25:52.010Z,5.08
2023-03-02T10:27:41.745Z,5.46
2023-03-02T10:29:35.017Z,5.43
2023-03-02T10:31:33.797Z,5.28
2023-03-02T10:33:17.670Z,5.41
2023-03-02T10:34:53.216Z,4.86
2023-03-02T10:36:28.470Z,4.63
2023-03-02T10:38:13.069Z,5.10
2023-03-02T10:39:44.802Z,5.38
2023-03-02T10:41:33.273Z,5.17
2023-03-02T10:43:09.644Z,5.20
2023-03-02T10:44:50.419Z,5.02
2023-03-02T10:46:22.246Z,5.15
2023-03-02T10:48:06.218Z,5.23
2023-03-02T10:49:42.842Z,5.08
2023-03-02T10:51:26.549Z,5.04
2023-03-02T10:53:01.065Z,4.79
2023-03-02T10:54:35.342Z,4.77
2023-03-02T10:56:22.829Z,5.05
2023-03-02T10:58:21.214Z,5.04
2023-03-02T10:59:53.080Z,5.02
2023-03-02T11:01:24.792Z,4.96
2023-03-02T11:03:02.135Z,5.09
2023-03-02T11:04:34.927Z,4.83
2023-03-02T11:06:20.807Z,4.96
2023-03-02T11:08:03.169Z,4.92
2023-03-02T11:09:34.705Z,5.18
2023-03-02T11:11:22.977Z,5.17
2023-03-02T11:12:55.031Z,5.52
2023-03-02T11:14:29.792Z,5.75
2023-03-02T11:16:23.942Z,6.01
2023-03-02T11:18:03.874Z,5.84
2023-03-02T11:19:39.521Z,5.33
2023-03-02T11:21:25.964Z,5.40
2023-03-02T11:23:31.615Z,5.58
2023-03-02T11:25:08.283Z,5.83
2023-03-02T11:26:48.129Z,6.17
2023-03-02T11:28:33.618Z,5.99
2023-03-02T11:30:20.281Z,6.08
2023-03-02T11:32:13.636Z,6.28
2023-03-02T11:34:15.646Z,5.64
2023-03-02T11:35:59.897Z,5.86
2023-03-02T11:37:55.133Z,6.02
2023-03-02T11:39:39.166Z,6.07
2023-03-02T11:41:29.526Z,5.88
2023-03-02T11:43:04.883Z,5.72
2023-03-02T11:44:36.479Z,5.94
2023-03-02T11:46:23.358Z,6.17
2023-03-02T11:48:08.419Z,6.36
2023-03-02T11:49:46.153Z,6.59
2023-03-02T11:51:23.518Z,6.79
2023-03-02T11:52:59.344Z,6.73
2023-03-02T11:54:44.419Z,7.01
2023-03-02T11:56:16.159Z,7.27
2023-03-02T11:57:52.457Z,7.30
2023-03-02T11:59:27.521Z,7.21
2023-03-02T12:01:02.046Z,6.43
2023-03-02T12:02:33.660Z,6.79
2023-03-02T12:04:36.507Z,6.85
2023-03-02T12:06:26.935Z,7.21
2023-03-02T12:08:00.863Z,7.29
2023-03-02T12:09:37.618Z,7.09
2023-03-02T12:11:18.121Z,6.93
2023-03-02T12:13:00.504Z,6.70
2023-03-02T12:14:41.550Z,6.92
2023-03-02T12:16:38.140Z,7.41
2023-03-02T12:18:26.583Z,7.52
2023-03-02T12:20:07.441Z,7.28
2023-03-02T12:21:41.483Z,7.29
2023-03-02T12:23:24.958Z,7.37
2023-03-02T12:25:03.989Z,7.41
2023-03-02T12:26:37.997Z,7.23
2023-03-02T12:28:27.266Z,7.12
2023-03-02T12:30:24.529Z,7.22
2023-03-02T12:31:57.049Z,7.21
2023-03-02T12:33:29.044Z,7.41
2023-03-02T12:35:10.743Z,7.49
2023-03-02T12:36:44.259Z,7.68
2023-03-02T12:38:36.911Z,6.90
2023-03-02T12:40:08.492Z,6.85
2023-03-02T12:41:50.312Z,6.65
2023-03-02T12:43:37.958Z,6.80
2023-03-02T12:45:35.816Z,7.33
2023-03-02T12:47:16.402Z,7.46
2023-03-02T12:49:13.689Z,7.83
2023-03-02T12:50:47.389Z,7.23
2023-03-02T12:52:27.866Z,7.42
2023-03-02T12:54:07.493Z,7.58
2023-03-02T12:55:39.075Z,7.70
2023-03-02T12:57:20.067Z,7.51
2023-03-02T12:58:52.886Z,7.17
2023-03-02T13:00:27.819Z,7.31
2023-03-02T13:02:11.146Z,7.53
2023-03-02T13:03:47.871Z,7.73
2023-03-02T13:05:25.793Z,7.72
2023-03-02T13:06:57.508Z,7.78
2023-03-02T13:08:30.234Z,7.82
2023-03-02T13:10:06.644Z,7.94
2023-03-02T13:11:38.843Z,7.92
2023-03-02T13:13:35.595Z,7.75
2023-03-02T13:15:15.552Z,7.74
2023-03-02T13:16:59.296Z,7.70
2023-03-02T13:18:36.801Z,7.69
2023-03-02T13:20:13.253Z,7.74
2023-03-02T13:21:44.980Z,7.44
2023-03-02T13:23:17.916Z,7.41
2023-03-02T13:24:55.549Z,7.60
2023-03-02T13:26:35.191Z,7.49
2023-03-02T13:28:24.414Z,7.55
2023-03-02T13:29:56.667Z,7.56
2023-03-02T13:31:29.288Z,7.65
2023-03-02T13:33:04.051Z,7.72
2023-03-02T13:34:36.267Z,7.75
2023-03-02T13:36:08.061Z,7.74
2023-03-02T13:37:43.899Z,7.74
2023-03-02T13:39:22.505Z,7.65
2023-03-02T13:40:55.841Z,7.80
2023-03-02T13:42:40.952Z,7.71
2023-03-02T13:44:23.123Z,7.49
2023-03-02T13:46:00.358Z,7.69
2023-03-02T13:47:31.987Z,7.88
2023-03-02T13:49:11.265Z,7.87
2023-03-02T13:50:56.680Z,7.62
2023-03-02T13:52:30.850Z,7.62
2023-03-02T13:54:06.058Z,7.65
2023-03-02T13:55:39.715Z,7.71
2023-03-02T13:57:16.534Z,7.52
2023-03-02T13:58:48.261Z,7.29
2023-03-02T14:00:26.678Z,7.49
2023-03-02T14:01:58.780Z,7.54
2023-03-02T14:03:31.291Z,7.51
2023-03-02T14:05:03.134Z,7.29
2023-03-02T14:06:35.122Z,7.06
2023-03-02T14:08:07.578Z,7.14
2023-03-02T14:09:39.222Z,6.99
2023-03-02T14:11:11.493Z,6.82
2023-03-02T14:12:51.172Z,6.84
2023-03-02T14:14:26.000Z,7.42
2023-03-02T14:15:57.618Z,8.84
2023-03-02T14:17:29.598Z,9.80
2023-03-02T14:19:02.020Z,10.80
2023-03-02T14:20:33.620Z,10.90
2023-03-02T14:22:05.264Z,11.18
2023-03-02T14:23:36.883Z,11.15
2023-03-02T14:25:08.812Z,11.36
2023-03-02T14:26:48.767Z,11.64
2023-03-02T14:28:33.214Z,11.63
2023-03-02T14:30:17.166Z,11.52
2023-03-02T14:31:49.336Z,11.57
2023-03-02T14:33:22.095Z,10.52
2023-03-02T14:34:53.807Z,9.60
2023-03-02T14:36:34.634Z,8.71
2023-03-02T14:38:06.364Z,8.60
2023-03-02T14:39:40.442Z,7.92
2023-03-02T14:41:24.283Z,7.74
2023-03-02T14:42:55.943Z,7.59
2023-03-02T14:44:27.765Z,7.63
2023-03-02T14:45:59.490Z,7.17
2023-03-02T14:47:31.945Z,7.24
2023-03-02T14:49:03.642Z,7.20
2023-03-02T14:50:39.856Z,7.17
2023-03-02T14:52:25.019Z,7.30
2023-03-02T14:54:00.235Z,7.07
2023-03-02T14:55:33.111Z,6.97
2023-03-02T14:57:07.915Z,6.94
2023-03-02T14:58:39.596Z,6.85
2023-03-02T15:00:15.437Z,6.92
2023-03-02T15:01:47.136Z,6.90
2023-03-02T15:03:22.676Z,6.87
2023-03-02T15:04:57.859Z,6.83
2023-03-02T15:06:32.073Z,6.72
2023-03-02T15:08:04.206Z,6.62
2023-03-02T15:09:35.824Z,6.53
2023-03-02T15:11:07.342Z,6.60
2023-03-02T15:12:38.919Z,6.55
2023-03-02T15:14:10.485Z,6.42
2023-03-02T15:15:44.563Z,6.45
2023-03-02T15:17:16.172Z,6.42
2023-03-02T15:18:52.621Z,6.39
2023-03-02T15:20:24.677Z,6.33
2023-03-02T15:21:57.458Z,6.34
2023-03-02T15:23:29.204Z,6.29
2023-03-02T15:25:00.906Z,6.37
2023-03-02T15:26:32.602Z,6.21
2023-03-02T15:28:04.673Z,6.23
2023-03-02T15:29:36.896Z,6.16
2023-03-02T15:31:15.969Z,6.08
2023-03-02T15:32:48.788Z,6.04
2023-03-02T15:34:20.948Z,6.14
2023-03-02T15:35:55.436Z,6.17
2023-03-02T15:37:27.610Z,6.09
2023-03-02T15:38:59.345Z,6.01
2023-03-02T15:40:31.357Z,6.05
2023-03-02T15:42:03.432Z,6.06
2023-03-02T15:43:35.169Z,6.01
2023-03-02T15:45:07.288Z,5.90
2023-03-02T15:46:39.192Z,5.97
2023-03-02T15:48:12.720Z,5.86
2023-03-02T15:49:45.723Z,5.74
2023-03-02T15:51:18.339Z,5.66
2023-03-02T15:52:51.961Z,5.62
2023-03-02T15:54:25.315Z,5.68
2023-03-02T15:55:57.281Z,5.81
2023-03-02T15:57:28.981Z,5.84
2023-03-02T15:59:00.757Z,5.81
2023-03-02T16:00:35.218Z,5.67
2023-03-02T16:02:07.391Z,5.60
2023-03-02T16:03:39.408Z,5.57
2023-03-02T16:05:11.412Z,5.49
2023-03-02T16:06:43.490Z,5.50
2023-03-02T16:08:15.467Z,5.56
2023-03-02T16:09:47.753Z,5.58
2023-03-02T16:11:23.378Z,5.55
2023-03-02T16:12:55.428Z,5.47
2023-03-02T16:14:27.589Z,5.43
2023-03-02T16:16:04.848Z,5.47
2023-03-02T16:17:36.607Z,5.42
2023-03-02T16:19:12.023Z,5.43
2023-03-02T16:20:44.191Z,5.34
2023-03-02T16:22:16.346Z,5.19
2023-03-02T16:23:48.757Z,5.09
2023-03-02T16:25:21.634Z,5.05
2023-03-02T16:26:54.058Z,5.19
2023-03-02T16:28:26.240Z,5.16
2023-03-02T16:29:58.157Z,5.15
2023-03-02T16:31:33.104Z,5.08
2023-03-02T16:33:08.278Z,4.97
2023-03-02T16:34:40.185Z,4.97
2023-03-02T16:36:13.083Z,4.96
2023-03-02T16:37:44.989Z,4.89
2023-03-02T16:39:17.281Z,4.84
2023-03-02T16:40:50.289Z,4.83
2023-03-02T16:42:21.895Z,4.79
2023-03-02T16:43:56.314Z,4.76
2023-03-02T16:45:28.167Z,4.64
2023-03-02T16:46:59.874Z,4.65
2023-03-02T16:48:31.467Z,4.84
2023-03-02T16:50:04.166Z,4.78
2023-03-02T16:51:36.151Z,4.76
2023-03-02T16:53:07.859Z,4.64
2023-03-02T16:54:39.497Z,4.71
2023-03-02T16:56:13.012Z,4.62
2023-03-02T16:57:45.086Z,4.50
2023-03-02T16:59:17.191Z,4.35
2023-03-02T17:00:49.330Z,4.20
2023-03-02T17:02:21.205Z,4.13
2023-03-02T17:03:53.024Z,4.09
2023-03-02T17:05:24.741Z,4.02
2023-03-02T17:07:00.865Z,4.00
2023-03-02T17:08:32.944Z,3.98
2023-03-02T17:10:06.287Z,3.90
2023-03-02T17:11:38.023Z,3.95
2023-03-02T17:13:12.042Z,3.93
2023-03-02T17:14:43.715Z,3.79
2023-03-02T17:16:16.826Z,3.71
2023-03-02T17:17:48.481Z,3.68
2023-03-02T17:19:22.278Z,3.66
2023-03-02T17:20:55.496Z,3.70
2023-03-02T17:22:27.248Z,3.67
2023-03-02T17:23:58.999Z,3.70
2023-03-02T17:25:30.911Z,3.60
2023-03-02T17:27:03.387Z,3.53
2023-03-02T17:28:35.993Z,3.46
2023-03-02T17:30:08.467Z,3.40
2023-03-02T17:31:40.187Z,3.39
2023-03-02T17:33:12.412Z,3.44
2023-03-02T17:34:44.150Z,3.52
2023-03-02T17:36:15.955Z,3.50
2023-03-02T17:37:48.024Z,3.43
2023-03-02T17:39:20.023Z,3.51
2023-03-02T17:40:51.836Z,3.54
2023-03-02T17:42:23.557Z,3.58
2023-03-02T17:43:55.419Z,3.56
2023-03-02T17:45:28.617Z,3.56
2023-03-02T17:47:05.356Z,3.53
2023-03-02T17:48:37.022Z,3.54
2023-03-02T17:50:09.385Z,3.71
2023-03-02T17:51:41.180Z,3.79
2023-03-02T17:53:12.901Z,3.80
2023-03-02T17:54:45.096Z,3.68
2023-03-02T17:56:19.788Z,3.63
2023-03-02T17:57:51.703Z,3.59
2023-03-02T17:59:23.505Z,3.52
2023-03-02T18:00:55.166Z,3.38
2023-03-02T18:02:27.041Z,3.42
2023-03-02T18:03:59.301Z,3.33
2023-03-02T18:05:31.177Z,3.39
2023-03-02T18:07:02.798Z,3.36
2023-03-02T18:08:34.473Z,3.19
2023-03-02T18:10:07.342Z,3.11
2023-03-02T18:11:41.439Z,3.04
2023-03-02T18:13:13.305Z,2.95
2023-03-02T18:14:45.113Z,2.90
2023-03-02T18:16:17.025Z,2.83
2023-03-02T18:17:48.857Z,2.82
2023-03-02T18:19:20.566Z,2.80
2023-03-02T18:20:55.205Z,2.77
2023-03-02T18:22:27.111Z,2.73
2023-03-02T18:23:58.942Z,2.70
2023-03-02T18:25:30.709Z,2.74
2023-03-02T18:27:02.610Z,2.67
2023-03-02T18:28:34.430Z,2.65
2023-03-02T18:30:06.607Z,2.65
2023-03-02T18:31:38.523Z,2.58
2023-03-02T18:33:10.352Z,2.52
2023-03-02T18:34:42.640Z,2.42
2023-03-02T18:36:14.518Z,2.46
2023-03-02T18:37:46.260Z,2.51
2023-03-02T18:39:18.003Z,2.54
2023-03-02T18:40:49.711Z,2.45
2023-03-02T18:42:22.460Z,2.40
2023-03-02T18:43:54.166Z,2.44
2023-03-02T18:45:28.828Z,2.38
2023-03-02T18:47:01.012Z,2.34
2023-03-02T18:48:33.107Z,2.30
2023-03-02T18:50:05.220Z,2.24
2023-03-02T18:51:36.951Z,2.15
2023-03-02T18:53:08.644Z,2.25
2023-03-02T18:54:40.466Z,2.29
2023-03-02T18:56:12.697Z,2.21
2023-03-02T18:57:44.781Z,2.12
2023-03-02T18:59:17.850Z,2.11
2023-03-02T19:00:49.854Z,2.12
2023-03-02T19:02:21.592Z,2.10
2023-03-02T19:03:56.937Z,2.04
2023-03-02T19:05:29.692Z,1.98
2023-03-02T19:07:02.933Z,1.96
2023-03-02T19:08:36.376Z,1.94
2023-03-02T19:10:09.021Z,2.00
2023-03-02T19:11:40.715Z,1.95
2023-03-02T19:13:12.546Z,1.91
2023-03-02T19:14:44.514Z,1.86
2023-03-02T19:16:18.233Z,1.81
2023-03-02T19:17:51.762Z,1.86
2023-03-02T19:19:23.540Z,1.89
2023-03-02T19:20:55.802Z,1.91
2023-03-02T19:22:27.589Z,1.82
2023-03-02T19:23:59.313Z,1.88
2023-03-02T19:25:31.121Z,1.86
2023-03-02T19:27:02.863Z,1.84
2023-03-02T19:28:35.089Z,2.05
2023-03-02T19:30:08.870Z,1.86
2023-03-02T19:31:40.838Z,1.77
2023-03-02T19:33:12.599Z,1.68
2023-03-02T19:34:44.402Z,1.65
2023-03-02T19:36:16.154Z,1.61
2023-03-02T19:37:47.846Z,1.53
2023-03-02T19:39:19.657Z,1.49
2023-03-02T19:40:51.354Z,1.48
2023-03-02T19:42:23.077Z,1.44
2023-03-02T19:43:54.918Z,1.37
2023-03-02T19:45:29.650Z,1.54
2023-03-02T19:47:01.540Z,1.55
2023-03-02T19:48:35.667Z,1.53
2023-03-02T19:50:08.342Z,1.51
2023-03-02T19:51:40.102Z,1.68
2023-03-02T19:53:12.437Z,1.58
2023-03-02T19:54:44.121Z,1.56
2023-03-02T19:56:16.464Z,1.69
2023-03-02T19:57:51.484Z,1.75
2023-03-02T19:59:24.468Z,1.64
2023-03-02T20:00:56.401Z,1.66
2023-03-02T20:02:28.133Z,1.53
2023-03-02T20:04:00.211Z,1.52
2023-03-02T20:05:31.996Z,1.45
2023-03-02T20:07:03.833Z,1.54
2023-03-02T20:08:35.854Z,1.45
2023-03-02T20:10:09.254Z,1.42
2023-03-02T20:11:41.202Z,1.32
2023-03-02T20:13:13.061Z,1.25
2023-03-02T20:14:49.300Z,1.22
2023-03-02T20:16:22.919Z,1.22
2023-03-02T20:17:54.866Z,1.37
2023-03-02T20:19:26.705Z,1.40
2023-03-02T20:20:58.456Z,1.29
2023-03-02T20:22:30.241Z,1.31
2023-03-02T20:24:02.299Z,1.25
2023-03-02T20:25:34.584Z,1.14
2023-03-02T20:27:07.272Z,1.04
2023-03-02T20:28:38.983Z,0.97
2023-03-02T20:30:15.520Z,0.98
2023-03-02T20:31:47.426Z,0.93
2023-03-02T20:33:22.329Z,0.89
2023-03-02T20:34:54.223Z,0.81
2023-03-02T20:36:30.584Z,0.73
2023-03-02T20:38:06.342Z,0.73
2023-03-02T20:39:39.877Z,0.73
2023-03-02T20:41:13.082Z,0.71
2023-03-02T20:42:45.007Z,0.70
2023-03-02T20:44:17.653Z,0.72
2023-03-02T20:45:49.837Z,0.71
2023-03-02T20:47:21.974Z,0.75
2023-03-02T20:48:54.487Z,0.76
2023-03-02T20:50:29.924Z,0.72
2023-03-02T20:52:02.289Z,0.70
2023-03-02T20:53:34.032Z,0.72
2023-03-02T20:55:06.816Z,0.70
2023-03-02T20:56:38.505Z,0.77
2023-03-02T20:58:11.353Z,0.83
2023-03-02T20:59:45.886Z,0.85